LIMJ/GOA METAR and TAF weather

Enter ICAO airport designator
Station Type Date Time Source
LIMJ METAR 2019/06/18 16:20 UTC NOAA

LIMJ 181620Z 22003KT 160V260 CAVOK 25/18 Q1014


Station Type Date Time Source
LIMJ Decoded METAR 2019/06/18 16:20 UTC NOAA

Genova / Sestri, Italy (LIMJ) 44-25N 008-51E 3M
Jun 18, 2019 - 12:20 PM EDT / 2019.06.18 1620 UTC
Wind: from the SW (220 degrees) at 3 MPH (3 KT) (direction variable):0
Visibility: greater than 7 mile(s):0
Temperature: 77 F (25 C)
Dew Point: 64 F (18 C)
Relative Humidity: 65%
Pressure (altimeter): 29.94 in. Hg (1014 hPa)
ob: LIMJ 181620Z 22003KT 160V260 CAVOK 25/18 Q1014
cycle: 16

Station Type Date Time Source
LIMJ TAF 2019/06/18 12:22 UTC NOAA

TAF LIMJ 181100Z 1812/1912 VRB05KT CAVOK

Example: see airport list